createdAt,value
2022-11-21T00:01:16.371Z,93.40
2022-11-21T00:03:43.819Z,93.50
2022-11-21T00:06:11.087Z,93.50
2022-11-21T00:08:38.318Z,93.50
2022-11-21T00:11:05.997Z,93.60
2022-11-21T00:13:33.673Z,93.60
2022-11-21T00:16:05.909Z,93.60
2022-11-21T00:18:34.788Z,93.60
2022-11-21T00:21:17.522Z,93.40
2022-11-21T00:23:46.080Z,93.60
2022-11-21T00:26:15.805Z,93.30
2022-11-21T00:28:43.182Z,93.30
2022-11-21T00:31:21.721Z,93.30
2022-11-21T00:33:49.166Z,93.20
2022-11-21T00:36:16.492Z,93.20
2022-11-21T00:38:43.738Z,93.20
2022-11-21T00:41:11.153Z,93.20
2022-11-21T00:43:38.432Z,93.20
2022-11-21T00:46:05.736Z,93.20
2022-11-21T00:48:33.634Z,93.10
2022-11-21T00:51:01.292Z,93.10
2022-11-21T00:53:29.615Z,93.10
2022-11-21T00:55:57.709Z,93.20
2022-11-21T00:58:25.056Z,93.10
2022-11-21T01:00:52.943Z,93.20
2022-11-21T01:03:20.372Z,93.30
2022-11-21T01:05:47.753Z,93.30
2022-11-21T01:08:14.990Z,93.30
2022-11-21T01:10:42.255Z,93.30
2022-11-21T01:13:09.459Z,93.40
2022-11-21T01:15:36.724Z,93.40
2022-11-21T01:18:04.301Z,93.50
2022-11-21T01:20:31.596Z,93.50
2022-11-21T01:22:58.841Z,93.50
2022-11-21T01:25:26.228Z,93.50
2022-11-21T01:27:53.481Z,93.50
2022-11-21T01:30:20.816Z,93.50
2022-11-21T01:32:50.161Z,93.50
2022-11-21T01:35:18.512Z,93.50
2022-11-21T01:37:49.813Z,93.40
2022-11-21T01:40:17.283Z,93.30
2022-11-21T01:43:12.699Z,93.40
2022-11-21T01:46:00.525Z,93.40
2022-11-21T01:48:51.562Z,93.50
2022-11-21T01:51:21.320Z,93.40
2022-11-21T01:54:19.334Z,93.40
2022-11-21T01:56:56.913Z,93.30
2022-11-21T01:59:43.582Z,93.30
2022-11-21T02:02:12.627Z,93.60
2022-11-21T02:04:41.971Z,93.40
2022-11-21T02:07:11.213Z,93.60
2022-11-21T02:09:43.351Z,93.50
2022-11-21T02:12:24.992Z,93.50
2022-11-21T02:14:53.718Z,93.50
2022-11-21T02:17:21.224Z,93.40
2022-11-21T02:19:56.579Z,93.40
2022-11-21T02:22:49.396Z,93.40
2022-11-21T02:25:23.036Z,93.40
2022-11-21T02:27:55.238Z,93.30
2022-11-21T02:30:23.018Z,93.20
2022-11-21T02:32:50.529Z,93.00
2022-11-21T02:35:19.199Z,92.90
2022-11-21T02:37:51.331Z,92.80
2022-11-21T02:40:25.397Z,92.80
2022-11-21T02:43:14.826Z,92.90
2022-11-21T02:45:44.473Z,92.90
2022-11-21T02:48:12.102Z,92.90
2022-11-21T02:50:41.609Z,92.90
2022-11-21T02:53:12.202Z,93.00
2022-11-21T02:55:39.506Z,92.90
2022-11-21T02:58:07.180Z,93.00
2022-11-21T03:00:36.570Z,93.10
2022-11-21T03:03:04.126Z,93.40
2022-11-21T03:05:32.414Z,93.40
2022-11-21T03:07:59.911Z,93.50
2022-11-21T03:10:27.434Z,93.60
2022-11-21T03:13:01.095Z,93.70
2022-11-21T03:15:30.920Z,93.60
2022-11-21T03:17:58.791Z,93.50
2022-11-21T03:20:26.090Z,93.40
2022-11-21T03:22:53.698Z,93.30
2022-11-21T03:25:21.122Z,93.30
2022-11-21T03:27:53.360Z,93.10
2022-11-21T03:30:22.104Z,93.10
2022-11-21T03:32:49.599Z,92.90
2022-11-21T03:35:17.088Z,92.80
2022-11-21T03:37:44.317Z,92.80
2022-11-21T03:40:12.239Z,92.90
2022-11-21T03:42:39.495Z,93.00
2022-11-21T03:45:07.494Z,93.10
2022-11-21T03:47:35.089Z,93.10
2022-11-21T03:50:02.388Z,93.20
2022-11-21T03:52:29.843Z,93.00
2022-11-21T03:54:57.082Z,93.10
2022-11-21T03:57:24.438Z,93.10
2022-11-21T03:59:51.802Z,93.10
2022-11-21T04:02:19.142Z,93.20
2022-11-21T04:04:46.601Z,93.30
2022-11-21T04:07:13.970Z,93.20
2022-11-21T04:09:41.239Z,93.30
2022-11-21T04:12:08.612Z,93.30
2022-11-21T04:14:35.999Z,93.30
2022-11-21T04:17:03.425Z,93.20
2022-11-21T04:19:30.771Z,93.10
2022-11-21T04:21:58.138Z,93.10
2022-11-21T04:24:25.628Z,93.00
2022-11-21T04:26:55.147Z,93.00
2022-11-21T04:29:22.552Z,92.90
2022-11-21T04:31:49.845Z,93.00
2022-11-21T04:34:17.228Z,93.10
2022-11-21T04:36:44.654Z,93.40
2022-11-21T04:39:12.099Z,93.10
2022-11-21T04:41:39.353Z,93.00
2022-11-21T04:44:06.968Z,93.00
2022-11-21T04:46:34.197Z,93.20
2022-11-21T04:49:01.517Z,93.30
2022-11-21T04:51:28.793Z,93.40
2022-11-21T04:53:56.057Z,93.30
2022-11-21T04:56:23.326Z,93.10
2022-11-21T04:58:52.764Z,93.10
2022-11-21T05:01:20.465Z,93.20
2022-11-21T05:03:47.838Z,93.10
2022-11-21T05:06:15.180Z,93.10
2022-11-21T05:08:42.423Z,93.10
2022-11-21T05:11:28.421Z,93.00
2022-11-21T05:13:55.956Z,93.00
2022-11-21T05:16:23.252Z,93.00
2022-11-21T05:18:50.622Z,93.00
2022-11-21T05:21:18.042Z,92.90
2022-11-21T05:23:45.380Z,93.00
2022-11-21T05:26:12.709Z,93.10
2022-11-21T05:28:40.062Z,93.00
2022-11-21T05:31:07.438Z,93.10
2022-11-21T05:33:34.737Z,93.00
2022-11-21T05:36:01.979Z,93.00
2022-11-21T05:38:29.220Z,93.00
2022-11-21T05:40:56.512Z,93.00
2022-11-21T05:43:42.367Z,93.00
2022-11-21T05:46:09.817Z,93.00
2022-11-21T05:48:37.051Z,93.30
2022-11-21T05:51:05.084Z,93.00
2022-11-21T05:53:32.560Z,93.10
2022-11-21T05:56:12.308Z,93.20
2022-11-21T05:58:40.140Z,93.10
2022-11-21T06:01:09.337Z,93.00
2022-11-21T06:03:40.012Z,92.90
2022-11-21T06:06:07.262Z,92.70
2022-11-21T06:08:39.952Z,92.60
2022-11-21T06:11:08.631Z,92.70
2022-11-21T06:13:36.621Z,92.70
2022-11-21T06:16:06.392Z,92.80
2022-11-21T06:18:41.326Z,93.00
2022-11-21T06:21:19.962Z,93.20
2022-11-21T06:23:48.258Z,93.40
2022-11-21T06:26:18.202Z,93.60
2022-11-21T06:28:46.101Z,93.50
2022-11-21T06:31:22.213Z,93.50
2022-11-21T06:33:53.692Z,93.60
2022-11-21T06:36:21.152Z,93.70
2022-11-21T06:38:48.916Z,93.70
2022-11-21T06:41:18.817Z,93.70
2022-11-21T06:43:46.453Z,94.00
2022-11-21T06:46:15.103Z,93.70
2022-11-21T06:48:43.284Z,93.60
2022-11-21T06:51:24.327Z,94.00
2022-11-21T06:53:57.189Z,93.70
2022-11-21T06:56:25.965Z,93.60
2022-11-21T06:58:53.769Z,93.70
2022-11-21T07:01:21.379Z,93.70
2022-11-21T07:03:48.712Z,93.70
2022-11-21T07:06:16.173Z,93.50
2022-11-21T07:08:43.450Z,93.60
2022-11-21T07:11:29.054Z,93.60
2022-11-21T07:13:56.732Z,93.60
2022-11-21T07:16:26.436Z,93.70
2022-11-21T07:18:53.986Z,93.70
2022-11-21T07:21:21.416Z,93.70
2022-11-21T07:23:48.894Z,93.70
2022-11-21T07:26:16.581Z,93.60
2022-11-21T07:28:44.142Z,93.60
2022-11-21T07:31:13.910Z,93.50
2022-11-21T07:33:43.611Z,93.50
2022-11-21T07:36:12.203Z,93.40
2022-11-21T07:38:41.346Z,93.40
2022-11-21T07:41:09.965Z,93.20
2022-11-21T07:43:37.359Z,93.10
2022-11-21T07:46:04.618Z,93.10
2022-11-21T07:48:31.937Z,93.20
2022-11-21T07:50:59.557Z,93.20
2022-11-21T07:53:26.792Z,93.20
2022-11-21T07:55:54.231Z,93.10
2022-11-21T07:58:21.462Z,93.20
2022-11-21T08:00:49.126Z,93.20
2022-11-21T08:03:16.379Z,93.00
2022-11-21T08:05:44.619Z,93.00
2022-11-21T08:08:13.242Z,93.00
2022-11-21T08:10:42.976Z,92.90
2022-11-21T08:13:11.465Z,92.90
2022-11-21T08:15:38.977Z,92.80
2022-11-21T08:18:09.558Z,92.80
2022-11-21T08:20:37.053Z,92.70
2022-11-21T08:23:04.693Z,92.70
2022-11-21T08:25:32.310Z,92.70
2022-11-21T08:27:59.996Z,92.90
2022-11-21T08:30:27.327Z,92.90
2022-11-21T08:32:54.703Z,92.90
2022-11-21T08:35:22.060Z,92.80
2022-11-21T08:37:49.496Z,92.80
2022-11-21T08:40:17.125Z,92.60
2022-11-21T08:42:44.459Z,92.30
2022-11-21T08:45:11.914Z,92.30
2022-11-21T08:47:39.233Z,92.20
2022-11-21T08:50:09.112Z,92.00
2022-11-21T08:52:37.029Z,91.90
2022-11-21T08:55:04.555Z,91.80
2022-11-21T08:57:31.996Z,91.80
2022-11-21T08:59:59.231Z,91.70
2022-11-21T09:02:26.484Z,91.40
2022-11-21T09:04:54.354Z,91.30
2022-11-21T09:07:21.971Z,91.30
2022-11-21T09:09:49.337Z,91.20
2022-11-21T09:12:16.712Z,91.30
2022-11-21T09:15:02.631Z,91.50
2022-11-21T09:17:48.738Z,91.10
2022-11-21T09:20:16.214Z,90.90
2022-11-21T09:22:43.502Z,90.80
2022-11-21T09:25:10.801Z,90.60
2022-11-21T09:27:38.045Z,90.70
2022-11-21T09:30:05.678Z,91.10
2022-11-21T09:32:33.686Z,90.70
2022-11-21T09:35:01.049Z,90.70
2022-11-21T09:37:28.327Z,90.50
2022-11-21T09:39:55.540Z,90.60
2022-11-21T09:42:46.035Z,90.80
2022-11-21T09:45:15.346Z,90.00
2022-11-21T09:47:51.140Z,90.00
2022-11-21T09:50:32.699Z,90.10
2022-11-21T09:53:22.551Z,90.00
2022-11-21T09:56:21.540Z,89.40
2022-11-21T09:59:06.401Z,88.90
2022-11-21T10:01:34.118Z,87.80
2022-11-21T10:04:03.984Z,87.60
2022-11-21T10:07:01.005Z,86.90
2022-11-21T10:09:39.043Z,86.80
2022-11-21T10:12:37.725Z,86.80
2022-11-21T10:15:29.324Z,86.60
2022-11-21T10:18:24.994Z,86.70
2022-11-21T10:21:16.375Z,86.40
2022-11-21T10:24:26.123Z,86.40
2022-11-21T10:27:16.957Z,85.00
2022-11-21T10:29:55.916Z,84.30
2022-11-21T10:32:39.316Z,83.80
2022-11-21T10:35:29.512Z,83.70
2022-11-21T10:38:00.635Z,82.40
2022-11-21T10:40:47.544Z,83.10
2022-11-21T10:43:49.245Z,81.90
2022-11-21T10:46:16.587Z,81.80
2022-11-21T10:48:55.473Z,81.20
2022-11-21T10:51:40.036Z,81.00
2022-11-21T10:54:29.048Z,81.30
2022-11-21T10:57:17.160Z,81.30
2022-11-21T11:00:14.336Z,81.60
2022-11-21T11:02:58.463Z,81.80
2022-11-21T11:05:27.933Z,82.00
2022-11-21T11:08:13.267Z,81.70
2022-11-21T11:11:05.062Z,81.40
2022-11-21T11:13:49.922Z,80.80
2022-11-21T11:16:21.562Z,79.50
2022-11-21T11:18:56.522Z,78.30
2022-11-21T11:21:45.272Z,77.10
2022-11-21T11:24:12.925Z,75.80
2022-11-21T11:26:49.601Z,75.30
2022-11-21T11:29:28.352Z,75.00
2022-11-21T11:31:58.701Z,75.30
2022-11-21T11:34:40.863Z,75.80
2022-11-21T11:37:23.666Z,75.90
2022-11-21T11:40:16.214Z,74.90
2022-11-21T11:43:23.347Z,74.30
2022-11-21T11:46:34.342Z,74.00
2022-11-21T11:49:20.195Z,73.90
2022-11-21T11:51:54.461Z,74.00
2022-11-21T11:54:34.430Z,74.60
2022-11-21T11:57:04.481Z,74.80
2022-11-21T11:59:39.964Z,74.80
2022-11-21T12:02:18.591Z,75.20
2022-11-21T12:04:52.604Z,75.70
2022-11-21T12:08:33.073Z,75.80
2022-11-21T12:10:28.467Z,76.20
2022-11-21T12:13:04.796Z,76.30
2022-11-21T12:15:49.597Z,76.90
2022-11-21T12:18:19.970Z,77.20
2022-11-21T12:21:11.126Z,77.40
2022-11-21T12:23:51.336Z,77.10
2022-11-21T12:26:33.831Z,76.60
2022-11-21T12:29:04.098Z,76.30
2022-11-21T12:31:55.908Z,76.30
2022-11-21T12:34:41.946Z,75.50
2022-11-21T12:37:39.498Z,74.80
2022-11-21T12:40:12.441Z,74.50
2022-11-21T12:42:50.263Z,74.50
2022-11-21T12:45:29.437Z,74.30
2022-11-21T12:48:49.205Z,74.10
2022-11-21T12:52:16.947Z,74.50
2022-11-21T12:54:50.048Z,74.80
2022-11-21T12:57:21.905Z,75.80
2022-11-21T13:00:25.238Z,76.30
2022-11-21T13:03:23.852Z,76.50
2022-11-21T13:05:53.916Z,75.30
2022-11-21T13:08:25.304Z,75.30
2022-11-21T13:11:28.221Z,75.00
2022-11-21T13:14:17.536Z,75.20
2022-11-21T13:16:52.875Z,75.40
2022-11-21T13:19:36.406Z,75.60
2022-11-21T13:22:03.680Z,75.70
2022-11-21T13:24:47.264Z,75.70
2022-11-21T13:27:33.566Z,75.70
2022-11-21T13:30:08.157Z,75.60
2022-11-21T13:32:50.371Z,75.10
2022-11-21T13:35:20.715Z,75.00
2022-11-21T13:38:02.936Z,74.80
2022-11-21T13:40:30.240Z,75.10
2022-11-21T13:43:35.749Z,75.40
2022-11-21T13:46:03.631Z,75.60
2022-11-21T13:48:31.233Z,75.80
2022-11-21T13:51:13.515Z,76.00
2022-11-21T13:53:59.511Z,75.90
2022-11-21T13:56:45.262Z,75.80
2022-11-21T13:59:50.957Z,75.90
2022-11-21T14:02:18.202Z,76.10
2022-11-21T14:05:16.764Z,76.50
2022-11-21T14:07:44.870Z,76.70
2022-11-21T14:10:25.171Z,76.80
2022-11-21T14:12:54.737Z,77.00
2022-11-21T14:15:48.260Z,77.40
2022-11-21T14:18:24.290Z,77.50
2022-11-21T14:20:56.831Z,77.60
2022-11-21T14:23:26.716Z,77.90
2022-11-21T14:26:14.736Z,77.80
2022-11-21T14:28:42.068Z,77.90
2022-11-21T14:31:12.318Z,77.60
2022-11-21T14:33:41.410Z,78.00
2022-11-21T14:36:22.414Z,77.40
2022-11-21T14:39:13.753Z,77.60
2022-11-21T14:41:40.235Z,77.80
2022-11-21T14:44:16.207Z,77.70
2022-11-21T14:46:44.489Z,77.90
2022-11-21T14:49:15.710Z,78.10
2022-11-21T14:52:09.230Z,78.40
2022-11-21T14:57:52.906Z,78.50
2022-11-21T15:00:58.005Z,78.80
2022-11-21T15:03:24.132Z,79.20
2022-11-21T15:06:04.416Z,79.60
2022-11-21T15:11:26.385Z,80.20
2022-11-21T15:14:18.066Z,81.60
2022-11-21T15:16:51.641Z,81.90
2022-11-21T15:19:28.541Z,82.20
2022-11-21T15:22:02.020Z,82.60
2022-11-21T15:24:32.657Z,82.80
2022-11-21T15:27:00.840Z,83.20
2022-11-21T15:29:30.495Z,83.40
2022-11-21T15:35:00.190Z,84.10
2022-11-21T15:37:27.852Z,84.30
2022-11-21T15:39:55.259Z,84.50
2022-11-21T15:42:34.607Z,84.60
2022-11-21T15:45:16.725Z,84.80
2022-11-21T15:47:47.142Z,84.90
2022-11-21T15:50:15.721Z,85.20
2022-11-21T15:52:48.438Z,85.40
2022-11-21T15:55:22.230Z,85.80
2022-11-21T15:57:15.011Z,83.70
2022-11-21T15:57:49.727Z,85.90
2022-11-21T16:00:17.426Z,86.00
2022-11-21T16:02:44.873Z,86.20
2022-11-21T16:05:16.521Z,86.40
2022-11-21T16:07:43.901Z,86.50
2022-11-21T16:10:19.896Z,86.70
2022-11-21T16:12:51.836Z,86.60
2022-11-21T16:15:19.094Z,86.60
2022-11-21T16:17:47.824Z,86.70
2022-11-21T16:20:15.585Z,86.60
2022-11-21T16:22:47.624Z,86.60
2022-11-21T16:25:15.947Z,86.80
2022-11-21T16:27:43.268Z,86.90
2022-11-21T16:30:10.973Z,86.90
2022-11-21T16:32:38.324Z,87.00
2022-11-21T16:35:06.183Z,87.20
2022-11-21T16:37:34.163Z,87.00
2022-11-21T16:40:01.528Z,86.90
2022-11-21T16:42:28.762Z,87.00
2022-11-21T16:44:55.987Z,87.20
2022-11-21T16:47:23.390Z,87.40
2022-11-21T16:49:50.690Z,87.30
2022-11-21T16:52:18.339Z,87.20
2022-11-21T16:54:47.169Z,87.20
2022-11-21T16:57:14.947Z,87.30
2022-11-21T16:59:42.237Z,87.30
2022-11-21T17:02:12.338Z,87.50
2022-11-21T17:04:39.565Z,87.50
2022-11-21T17:07:06.894Z,87.40
2022-11-21T17:09:34.983Z,87.70
2022-11-21T17:12:02.327Z,88.00
2022-11-21T17:14:29.671Z,88.30
2022-11-21T17:16:59.054Z,88.80
2022-11-21T17:19:29.000Z,89.10
2022-11-21T17:21:56.840Z,89.70
2022-11-21T17:24:24.084Z,90.00
2022-11-21T17:26:51.521Z,90.20
2022-11-21T17:29:18.752Z,90.20
2022-11-21T17:31:46.998Z,90.30
2022-11-21T17:34:15.550Z,90.50
2022-11-21T17:36:42.989Z,90.80
2022-11-21T17:39:10.671Z,90.90
2022-11-21T17:41:39.807Z,91.10
2022-11-21T17:44:07.077Z,91.20
2022-11-21T17:46:34.376Z,91.30
2022-11-21T17:49:02.355Z,91.40
2022-11-21T17:51:35.065Z,91.40
2022-11-21T17:54:02.820Z,91.50
2022-11-21T17:56:32.577Z,91.60
2022-11-21T17:59:00.464Z,91.60
2022-11-21T18:01:29.047Z,91.70
2022-11-21T18:04:01.647Z,91.70
2022-11-21T18:06:36.913Z,91.80
2022-11-21T18:09:08.071Z,91.80
2022-11-21T18:11:40.040Z,91.90
2022-11-21T18:14:10.179Z,91.90
2022-11-21T18:16:39.375Z,92.20
2022-11-21T18:19:08.642Z,92.00
2022-11-21T18:21:36.622Z,92.40
2022-11-21T18:24:04.022Z,92.20
2022-11-21T18:26:37.248Z,92.30
2022-11-21T18:29:35.130Z,92.40
2022-11-21T18:31:54.291Z,92.70
2022-11-21T18:34:21.684Z,92.40
2022-11-21T18:36:49.008Z,92.50
2022-11-21T18:39:16.603Z,92.60
2022-11-21T18:41:44.057Z,92.60
2022-11-21T18:44:14.564Z,92.70
2022-11-21T18:46:44.412Z,92.60
2022-11-21T18:49:12.011Z,92.70
2022-11-21T18:51:39.632Z,92.80
2022-11-21T18:54:09.631Z,92.80
2022-11-21T18:56:38.641Z,92.90
2022-11-21T18:59:06.784Z,93.00
2022-11-21T19:01:35.941Z,93.10
2022-11-21T19:04:03.971Z,93.30
2022-11-21T19:06:31.869Z,93.30
2022-11-21T19:08:59.576Z,93.50
2022-11-21T19:11:28.945Z,93.40
2022-11-21T19:13:57.687Z,93.50
2022-11-21T19:16:26.971Z,93.60
2022-11-21T19:21:42.778Z,93.60
2022-11-21T19:24:13.415Z,93.60
2022-11-21T19:26:41.846Z,93.50
2022-11-21T19:29:10.188Z,93.50
2022-11-21T19:31:44.243Z,93.30
2022-11-21T19:34:13.249Z,93.10
2022-11-21T19:36:41.109Z,93.00
2022-11-21T19:39:09.789Z,93.30
2022-11-21T19:41:37.777Z,93.10
2022-11-21T19:44:05.293Z,93.00
2022-11-21T19:46:35.054Z,93.30
2022-11-21T19:49:02.962Z,92.90
2022-11-21T19:51:33.279Z,92.80
2022-11-21T19:54:04.618Z,92.80
2022-11-21T19:56:32.026Z,92.70
2022-11-21T19:58:59.558Z,92.70
2022-11-21T20:01:29.677Z,92.70
2022-11-21T20:03:59.443Z,92.80
2022-11-21T20:06:34.742Z,92.80
2022-11-21T20:09:07.390Z,92.90
2022-11-21T20:11:35.811Z,92.90
2022-11-21T20:14:03.290Z,93.00
2022-11-21T20:16:39.476Z,93.10
2022-11-21T20:19:12.737Z,93.20
2022-11-21T20:21:40.096Z,93.30
2022-11-21T20:24:07.860Z,93.70
2022-11-21T20:26:36.608Z,93.20
2022-11-21T20:29:04.924Z,93.20
2022-11-21T20:31:34.105Z,93.10
2022-11-21T20:34:04.574Z,93.00
2022-11-21T20:36:33.832Z,93.00
2022-11-21T20:39:04.406Z,92.80
2022-11-21T20:41:34.837Z,92.80
2022-11-21T20:47:03.122Z,92.60
2022-11-21T20:49:30.632Z,92.60
2022-11-21T20:54:45.504Z,92.60
2022-11-21T20:57:15.151Z,92.70
2022-11-21T20:59:43.225Z,92.70
2022-11-21T21:02:14.330Z,92.80
2022-11-21T21:04:42.197Z,93.10
2022-11-21T21:07:09.753Z,92.70
2022-11-21T21:09:37.156Z,92.80
2022-11-21T21:12:05.727Z,93.00
2022-11-21T21:14:33.141Z,93.20
2022-11-21T21:17:00.431Z,93.60
2022-11-21T21:19:28.009Z,93.90
2022-11-21T21:21:55.536Z,94.10
2022-11-21T21:24:22.924Z,94.30
2022-11-21T21:26:51.147Z,94.50
2022-11-21T21:29:20.409Z,94.70
2022-11-21T21:31:52.796Z,94.80
2022-11-21T21:34:21.596Z,94.90
2022-11-21T21:36:49.649Z,95.00
2022-11-21T21:39:16.947Z,95.10
2022-11-21T21:41:46.186Z,95.30
2022-11-21T21:44:14.787Z,95.40
2022-11-21T21:46:42.228Z,95.40
2022-11-21T21:49:09.809Z,95.50
2022-11-21T21:51:37.874Z,95.50
2022-11-21T21:54:06.228Z,95.60
2022-11-21T21:56:34.365Z,95.70
2022-11-21T21:59:01.793Z,95.80
2022-11-21T22:01:31.539Z,95.90
2022-11-21T22:04:00.970Z,95.90
2022-11-21T22:06:29.745Z,95.90
2022-11-21T22:08:57.077Z,95.90
2022-11-21T22:11:27.304Z,95.80
2022-11-21T22:14:03.396Z,95.90
2022-11-21T22:16:31.336Z,95.90
2022-11-21T22:18:59.182Z,95.90
2022-11-21T22:21:28.989Z,96.00
2022-11-21T22:24:23.751Z,95.90
2022-11-21T22:26:45.899Z,95.70
2022-11-21T22:29:13.154Z,95.70
2022-11-21T22:31:40.459Z,95.80
2022-11-21T22:34:11.754Z,96.00
2022-11-21T22:36:39.078Z,96.10
2022-11-21T22:39:06.490Z,96.20
2022-11-21T22:41:33.748Z,96.00
2022-11-21T22:44:00.989Z,96.00
2022-11-21T22:46:29.434Z,96.10
2022-11-21T22:48:56.859Z,95.90
2022-11-21T22:51:26.751Z,95.70
2022-11-21T22:53:54.040Z,95.60
2022-11-21T22:56:23.239Z,95.70
2022-11-21T22:58:50.678Z,95.70
2022-11-21T23:01:20.621Z,95.80
2022-11-21T23:03:49.255Z,95.90
2022-11-21T23:06:21.405Z,95.80
2022-11-21T23:08:49.554Z,95.80
2022-11-21T23:11:19.684Z,95.80
2022-11-21T23:13:48.973Z,95.80
2022-11-21T23:16:17.017Z,95.70
2022-11-21T23:18:44.895Z,95.90
2022-11-21T23:21:13.673Z,95.90
2022-11-21T23:23:41.429Z,95.80
2022-11-21T23:26:09.098Z,95.90
2022-11-21T23:28:36.436Z,96.00
2022-11-21T23:31:03.858Z,96.00
2022-11-21T23:33:31.188Z,95.90
2022-11-21T23:35:58.596Z,95.90
2022-11-21T23:38:26.022Z,95.90
2022-11-21T23:40:53.351Z,95.90
2022-11-21T23:43:20.676Z,95.90
2022-11-21T23:45:52.201Z,96.10
2022-11-21T23:48:20.650Z,96.20
2022-11-21T23:50:50.327Z,96.30
2022-11-21T23:53:18.286Z,96.40
2022-11-21T23:55:45.577Z,96.30
2022-11-21T23:58:13.390Z,96.20
